Time;durP1;ratioP1;P1;durP2;ratioP2;P2;SDS_P1;SDS_P2;PMS_P1;PMS_P2;Temp;Humidity;BMP_temperature;BMP_pressure;BME280_temperature;BME280_humidity;BME280_pressure;Samples;Min_cycle;Max_cycle;Signal;HPM_P1;HPM_P2
2023/06/28 00:02:10;;;;;;;2.83;1.52;;;;;;;;;;4967862;28;20243;-69
2023/06/28 00:04:35;;;;;;;5.05;1.48;;;;;;;;;;4971041;28;20560;-69
2023/06/28 00:07:00;;;;;;;2.38;1.42;;;;;;;;;;4971648;28;20208;-68
2023/06/28 00:09:27;;;;;;;3.20;1.60;;;;;;;;;;4971370;28;20176;-68
2023/06/28 00:11:52;;;;;;;2.90;1.40;;;;;;;;;;4971031;28;20295;-69
2023/06/28 00:14:17;;;;;;;3.83;1.73;;;;;;;;;;4969926;28;20195;-68
2023/06/28 00:16:43;;;;;;;2.97;1.33;;;;;;;;;;4968539;28;20522;-68
2023/06/28 00:19:08;;;;;;;4.57;1.80;;;;;;;;;;4970935;28;20282;-68
2023/06/28 00:21:33;;;;;;;6.15;1.92;;;;;;;;;;4970155;28;20200;-69
2023/06/28 00:24:00;;;;;;;2.53;1.70;;;;;;;;;;4970817;28;20181;-68
2023/06/28 00:26:26;;;;;;;4.03;1.70;;;;;;;;;;4971315;28;20319;-68
2023/06/28 00:28:51;;;;;;;2.90;1.40;;;;;;;;;;4971507;28;20597;-69
2023/06/28 00:31:16;;;;;;;5.28;1.55;;;;;;;;;;4971023;28;20200;-68
2023/06/28 00:33:42;;;;;;;2.80;1.60;;;;;;;;;;4966249;28;20258;-68
2023/06/28 00:36:07;;;;;;;4.53;1.55;;;;;;;;;;4966970;28;20192;-68
2023/06/28 00:38:32;;;;;;;5.68;1.60;;;;;;;;;;4975281;28;20323;-69
2023/06/28 00:40:58;;;;;;;2.90;1.70;;;;;;;;;;4974312;28;20220;-68
2023/06/28 00:43:23;;;;;;;5.45;1.80;;;;;;;;;;4972584;28;20180;-68
2023/06/28 00:45:48;;;;;;;1.85;1.40;;;;;;;;;;4967214;28;20711;-69
2023/06/28 00:48:14;;;;;;;2.92;1.38;;;;;;;;;;4970038;28;20238;-68
2023/06/28 00:50:39;;;;;;;3.33;1.50;;;;;;;;;;4963452;28;20188;-67
2023/06/28 00:53:04;;;;;;;2.75;1.42;;;;;;;;;;4970589;28;20188;-69
2023/06/28 00:55:30;;;;;;;4.75;1.65;;;;;;;;;;4971772;28;20682;-68
2023/06/28 00:57:55;;;;;;;3.63;1.65;;;;;;;;;;4972465;28;20264;-68
2023/06/28 01:00:21;;;;;;;2.13;1.55;;;;;;;;;;4972085;28;20268;-68
2023/06/28 01:02:46;;;;;;;7.03;1.98;;;;;;;;;;4969924;28;20223;-68
2023/06/28 01:05:13;;;;;;;4.63;2.08;;;;;;;;;;4970812;28;20267;-68
2023/06/28 01:07:39;;;;;;;4.40;1.73;;;;;;;;;;4969599;28;20198;-68
2023/06/28 01:10:05;;;;;;;3.55;1.90;;;;;;;;;;4960969;28;20235;-68
2023/06/28 01:12:30;;;;;;;3.88;2.13;;;;;;;;;;4969427;28;20200;-68
2023/06/28 01:14:56;;;;;;;2.10;1.48;;;;;;;;;;4964813;28;20230;-68
2023/06/28 01:17:21;;;;;;;3.67;1.40;;;;;;;;;;4971892;28;20231;-68
2023/06/28 01:19:46;;;;;;;4.28;1.80;;;;;;;;;;4969890;28;20712;-68
2023/06/28 01:22:13;;;;;;;5.88;1.88;;;;;;;;;;4969105;28;20200;-68
2023/06/28 01:24:38;;;;;;;2.90;1.60;;;;;;;;;;4968119;28;20523;-69
2023/06/28 01:27:04;;;;;;;2.92;1.50;;;;;;;;;;4973551;28;20177;-68
2023/06/28 01:29:29;;;;;;;4.22;2.00;;;;;;;;;;4971837;28;20172;-68
2023/06/28 01:31:55;;;;;;;5.93;2.15;;;;;;;;;;4971233;28;20712;-68
2023/06/28 01:34:22;;;;;;;3.58;1.83;;;;;;;;;;4967355;28;20216;-68
2023/06/28 01:36:48;;;;;;;4.18;2.00;;;;;;;;;;4970640;28;20227;-68
2023/06/28 01:39:14;;;;;;;2.40;1.85;;;;;;;;;;4973221;28;20215;-68
2023/06/28 01:41:40;;;;;;;3.55;2.47;;;;;;;;;;4972670;28;20195;-68
2023/06/28 01:44:05;;;;;;;3.95;2.70;;;;;;;;;;4970855;28;20185;-68
2023/06/28 01:46:30;;;;;;;6.43;2.72;;;;;;;;;;4969739;28;20602;-69
2023/06/28 01:48:56;;;;;;;3.72;2.05;;;;;;;;;;4972021;28;20276;-68
2023/06/28 01:51:21;;;;;;;4.40;2.17;;;;;;;;;;4969450;28;20200;-69
2023/06/28 01:53:46;;;;;;;4.40;1.90;;;;;;;;;;4967563;28;20185;-69
2023/06/28 01:56:12;;;;;;;6.00;2.75;;;;;;;;;;4968671;28;20184;-68
2023/06/28 01:58:37;;;;;;;5.65;2.20;;;;;;;;;;4970780;28;20243;-68
2023/06/28 02:01:02;;;;;;;5.07;2.30;;;;;;;;;;4970049;28;20259;-68
2023/06/28 02:03:27;;;;;;;3.50;2.08;;;;;;;;;;4970032;28;20180;-69
2023/06/28 02:05:53;;;;;;;4.40;1.80;;;;;;;;;;4967624;28;20213;-69
2023/06/28 02:08:18;;;;;;;3.40;1.95;;;;;;;;;;4971963;28;20184;-69
2023/06/28 02:10:43;;;;;;;7.43;2.35;;;;;;;;;;4964254;28;20208;-69
2023/06/28 02:13:09;;;;;;;5.90;2.45;;;;;;;;;;4967749;28;20184;-69
2023/06/28 02:15:35;;;;;;;3.65;2.42;;;;;;;;;;4965386;28;20180;-68
2023/06/28 02:18:00;;;;;;;5.15;2.40;;;;;;;;;;4972050;28;20199;-69
2023/06/28 02:20:26;;;;;;;3.83;2.70;;;;;;;;;;4971885;28;20181;-68
2023/06/28 02:22:51;;;;;;;3.95;2.45;;;;;;;;;;4972680;28;20666;-68
2023/06/28 02:25:16;;;;;;;3.58;2.97;;;;;;;;;;4970474;28;20191;-69
2023/06/28 02:27:41;;;;;;;5.60;2.45;;;;;;;;;;4971655;28;20203;-68
2023/06/28 02:30:07;;;;;;;3.17;2.15;;;;;;;;;;4973160;28;20692;-68
2023/06/28 02:32:32;;;;;;;10.50;2.88;;;;;;;;;;4971979;28;20590;-68
2023/06/28 02:34:57;;;;;;;5.05;2.40;;;;;;;;;;4968720;28;20188;-69
2023/06/28 02:37:23;;;;;;;5.10;3.28;;;;;;;;;;4973399;28;20208;-69
2023/06/28 02:39:48;;;;;;;4.00;2.88;;;;;;;;;;4972609;28;20581;-69
2023/06/28 02:42:14;;;;;;;9.90;3.85;;;;;;;;;;4973100;28;20192;-69
2023/06/28 02:44:39;;;;;;;5.93;3.35;;;;;;;;;;4971746;28;20168;-69
2023/06/28 02:47:04;;;;;;;5.75;3.40;;;;;;;;;;4960834;28;20172;-69
2023/06/28 02:49:30;;;;;;;6.53;3.25;;;;;;;;;;4960868;28;20185;-69
2023/06/28 02:51:55;;;;;;;5.72;3.35;;;;;;;;;;4962053;28;20248;-69
2023/06/28 02:54:20;;;;;;;6.53;3.53;;;;;;;;;;4962844;28;20173;-69
2023/06/28 02:56:45;;;;;;;6.75;3.33;;;;;;;;;;4959945;28;20223;-69
2023/06/28 02:59:10;;;;;;;7.40;3.60;;;;;;;;;;4970050;28;20196;-69
2023/06/28 03:01:36;;;;;;;6.65;3.53;;;;;;;;;;4970857;28;20211;-69
2023/06/28 03:04:02;;;;;;;7.38;3.88;;;;;;;;;;4963878;28;20708;-69
2023/06/28 03:06:27;;;;;;;5.93;3.80;;;;;;;;;;4967276;28;20662;-69
2023/06/28 03:08:52;;;;;;;7.93;3.60;;;;;;;;;;4974886;28;20227;-69
2023/06/28 03:11:17;;;;;;;7.40;4.05;;;;;;;;;;4971994;28;20203;-69
2023/06/28 03:13:43;;;;;;;4.68;3.83;;;;;;;;;;4965814;28;20187;-69
2023/06/28 03:16:08;;;;;;;7.75;4.82;;;;;;;;;;4972633;28;20247;-69
2023/06/28 03:18:34;;;;;;;5.03;3.95;;;;;;;;;;4971648;28;20208;-69
2023/06/28 03:20:59;;;;;;;8.68;4.00;;;;;;;;;;4971685;28;20204;-69
2023/06/28 03:23:24;;;;;;;10.55;4.57;;;;;;;;;;4963013;28;20223;-70
2023/06/28 03:25:49;;;;;;;6.00;4.28;;;;;;;;;;4967278;28;20570;-69
2023/06/28 03:28:16;;;;;;;8.60;4.70;;;;;;;;;;4965764;28;20710;-69
2023/06/28 03:30:41;;;;;;;8.65;3.78;;;;;;;;;;4970379;28;20196;-68
2023/06/28 03:33:06;;;;;;;8.32;4.55;;;;;;;;;;4972087;28;20184;-69
2023/06/28 03:35:31;;;;;;;9.65;5.00;;;;;;;;;;4960056;28;20185;-69
2023/06/28 03:37:57;;;;;;;7.35;4.15;;;;;;;;;;4963775;28;20719;-68
2023/06/28 03:40:22;;;;;;;7.88;4.20;;;;;;;;;;4971566;28;20916;-69
2023/06/28 03:42:48;;;;;;;7.80;3.78;;;;;;;;;;4966985;28;20207;-68
2023/06/28 03:45:16;;;;;;;7.50;4.00;;;;;;;;;;4969226;28;20279;-69
2023/06/28 03:47:41;;;;;;;9.60;4.38;;;;;;;;;;4960115;28;20259;-69
2023/06/28 03:50:06;;;;;;;10.48;5.05;;;;;;;;;;4970401;28;20655;-68
2023/06/28 03:52:32;;;;;;;9.05;5.15;;;;;;;;;;4970820;28;20228;-69
2023/06/28 03:54:57;;;;;;;8.63;5.38;;;;;;;;;;4962382;28;20181;-69
2023/06/28 03:57:22;;;;;;;7.25;4.60;;;;;;;;;;4965601;28;20184;-68
2023/06/28 03:59:48;;;;;;;9.93;4.53;;;;;;;;;;4963421;28;20174;-68
2023/06/28 04:02:13;;;;;;;6.32;4.68;;;;;;;;;;4962633;28;20212;-68
2023/06/28 04:04:39;;;;;;;10.65;5.65;;;;;;;;;;4966897;28;20180;-68
2023/06/28 04:07:04;;;;;;;7.32;4.45;;;;;;;;;;4965047;28;20184;-68
2023/06/28 04:09:29;;;;;;;7.70;4.90;;;;;;;;;;4958176;28;20387;-68
2023/06/28 04:11:55;;;;;;;8.63;4.90;;;;;;;;;;4962082;28;20266;-68
2023/06/28 04:14:20;;;;;;;9.68;5.07;;;;;;;;;;4958218;28;20177;-68
2023/06/28 04:16:45;;;;;;;9.02;5.25;;;;;;;;;;4961831;28;20749;-68
2023/06/28 04:19:10;;;;;;;8.82;5.13;;;;;;;;;;4961064;28;20575;-69
2023/06/28 04:21:36;;;;;;;8.90;4.97;;;;;;;;;;4957995;28;20905;-69
2023/06/28 04:24:01;;;;;;;7.65;4.90;;;;;;;;;;4962959;28;20235;-69
2023/06/28 04:26:26;;;;;;;10.90;5.78;;;;;;;;;;4963875;28;20181;-69
2023/06/28 04:28:52;;;;;;;8.68;4.72;;;;;;;;;;4967167;28;20183;-69
2023/06/28 04:31:17;;;;;;;11.85;4.82;;;;;;;;;;4970205;28;20215;-69
2023/06/28 04:33:42;;;;;;;10.27;5.30;;;;;;;;;;4971887;28;20679;-70
2023/06/28 04:36:09;;;;;;;11.82;5.28;;;;;;;;;;4969105;28;20673;-69
2023/06/28 04:38:34;;;;;;;8.35;5.22;;;;;;;;;;4967113;28;20204;-69
2023/06/28 04:40:59;;;;;;;11.43;4.95;;;;;;;;;;4969187;28;20196;-69
2023/06/28 04:43:25;;;;;;;10.27;5.03;;;;;;;;;;4970828;28;20200;-69
2023/06/28 04:45:50;;;;;;;12.13;5.63;;;;;;;;;;4966440;28;20252;-70
2023/06/28 04:48:15;;;;;;;10.98;5.07;;;;;;;;;;4956575;28;20232;-70
2023/06/28 04:50:40;;;;;;;8.43;5.63;;;;;;;;;;4968374;28;20240;-70
2023/06/28 04:53:06;;;;;;;12.18;6.47;;;;;;;;;;4968357;28;20299;-69
2023/06/28 04:55:34;;;;;;;9.13;5.07;;;;;;;;;;4963448;28;20181;-69
2023/06/28 04:58:03;;;;;;;9.45;4.38;;;;;;;;;;4962983;28;20674;-69
2023/06/28 05:00:29;;;;;;;9.38;5.97;;;;;;;;;;4969627;28;20666;-68
2023/06/28 05:02:56;;;;;;;8.48;5.38;;;;;;;;;;4970359;28;20185;-68
2023/06/28 05:05:22;;;;;;;11.15;5.72;;;;;;;;;;4972005;28;20180;-68
2023/06/28 05:07:47;;;;;;;8.90;5.55;;;;;;;;;;4968482;28;20268;-69
2023/06/28 05:10:13;;;;;;;9.65;5.00;;;;;;;;;;4970692;28;20730;-69
2023/06/28 05:12:38;;;;;;;9.18;5.07;;;;;;;;;;4965402;28;20750;-69
2023/06/28 05:15:04;;;;;;;10.68;5.40;;;;;;;;;;4969184;28;20195;-68
2023/06/28 05:17:29;;;;;;;12.07;5.60;;;;;;;;;;4965233;28;20200;-68
2023/06/28 05:19:54;;;;;;;9.05;5.43;;;;;;;;;;4962374;28;20184;-69
2023/06/28 05:22:21;;;;;;;13.27;5.53;;;;;;;;;;4975956;28;20204;-69
2023/06/28 05:24:47;;;;;;;12.02;6.55;;;;;;;;;;4987751;28;20184;-69
2023/06/28 05:27:12;;;;;;;8.85;5.97;;;;;;;;;;4987265;28;20218;-69
2023/06/28 05:29:37;;;;;;;10.65;6.35;;;;;;;;;;4983187;28;20407;-69
2023/06/28 05:32:03;;;;;;;10.45;6.05;;;;;;;;;;4984119;28;20726;-69
2023/06/28 05:34:28;;;;;;;7.55;5.90;;;;;;;;;;4987928;28;20685;-69
2023/06/28 05:36:53;;;;;;;20.55;6.22;;;;;;;;;;4982662;28;20176;-69
2023/06/28 05:39:19;;;;;;;10.40;5.82;;;;;;;;;;4976518;28;20208;-69
2023/06/28 05:41:45;;;;;;;10.00;4.78;;;;;;;;;;4975898;28;20760;-68
2023/06/28 05:44:10;;;;;;;12.63;6.65;;;;;;;;;;4979214;28;20172;-68
2023/06/28 05:46:37;;;;;;;14.30;5.70;;;;;;;;;;4976035;28;20183;-68
2023/06/28 05:49:06;;;;;;;8.43;5.45;;;;;;;;;;4969683;28;20211;-69
2023/06/28 05:51:32;;;;;;;12.20;5.78;;;;;;;;;;4971721;28;20215;-69
2023/06/28 05:53:57;;;;;;;16.48;6.47;;;;;;;;;;4974948;28;20185;-69
2023/06/28 05:56:22;;;;;;;9.77;5.72;;;;;;;;;;4965339;28;20189;-68
2023/06/28 05:58:47;;;;;;;9.10;6.05;;;;;;;;;;4979632;28;20212;-68
2023/06/28 06:01:12;;;;;;;14.30;6.07;;;;;;;;;;4974382;23;20227;-73
2023/06/28 06:03:38;;;;;;;12.88;5.95;;;;;;;;;;4982695;28;20677;-74
2023/06/28 06:06:03;;;;;;;11.73;6.63;;;;;;;;;;4988939;28;20190;-74
2023/06/28 06:08:28;;;;;;;10.52;5.75;;;;;;;;;;4989200;28;20642;-71
2023/06/28 06:10:53;;;;;;;15.15;7.05;;;;;;;;;;4989335;28;20176;-71
2023/06/28 06:13:19;;;;;;;12.07;7.05;;;;;;;;;;4971570;28;20189;-72
2023/06/28 06:15:44;;;;;;;11.07;6.32;;;;;;;;;;4970794;28;20188;-74
2023/06/28 06:18:09;;;;;;;10.70;5.97;;;;;;;;;;4972985;28;20659;-75
2023/06/28 06:20:35;;;;;;;12.93;6.70;;;;;;;;;;4972871;28;20192;-74
2023/06/28 06:23:00;;;;;;;11.07;5.88;;;;;;;;;;4974510;28;20258;-73
2023/06/28 06:25:25;;;;;;;13.73;6.18;;;;;;;;;;4970169;28;20576;-73
2023/06/28 06:27:50;;;;;;;11.70;6.68;;;;;;;;;;4973825;28;20191;-73
2023/06/28 06:30:16;;;;;;;11.48;7.10;;;;;;;;;;4989728;28;20185;-72
2023/06/28 06:32:41;;;;;;;11.73;6.60;;;;;;;;;;4974637;28;20243;-72
2023/06/28 06:35:06;;;;;;;8.90;6.50;;;;;;;;;;4973616;28;20208;-72
2023/06/28 06:37:32;;;;;;;13.88;7.38;;;;;;;;;;4972550;28;20188;-75
2023/06/28 06:39:57;;;;;;;13.30;6.65;;;;;;;;;;4974532;28;20238;-72
2023/06/28 06:42:22;;;;;;;11.07;6.90;;;;;;;;;;4973542;28;20200;-73
2023/06/28 06:44:47;;;;;;;14.43;7.03;;;;;;;;;;4972007;28;20187;-73
2023/06/28 06:47:12;;;;;;;11.10;7.40;;;;;;;;;;4967361;28;20187;-74
2023/06/28 06:49:38;;;;;;;11.20;6.80;;;;;;;;;;4965864;28;20216;-73
2023/06/28 06:52:03;;;;;;;10.48;6.60;;;;;;;;;;4969088;28;20197;-73
2023/06/28 06:54:29;;;;;;;15.32;5.95;;;;;;;;;;4968835;28;20570;-73
2023/06/28 06:56:55;;;;;;;13.50;6.25;;;;;;;;;;4972676;28;20188;-73
2023/06/28 06:59:23;;;;;;;10.98;6.20;;;;;;;;;;4970261;28;20200;-73
2023/06/28 07:01:48;;;;;;;9.82;5.60;;;;;;;;;;4968758;28;20253;-73
2023/06/28 07:04:13;;;;;;;8.57;5.50;;;;;;;;;;4969017;28;20549;-73
2023/06/28 07:06:39;;;;;;;12.77;5.90;;;;;;;;;;4970713;28;20187;-73
2023/06/28 07:09:04;;;;;;;10.52;6.35;;;;;;;;;;4969244;28;20184;-73
2023/06/28 07:11:30;;;;;;;10.80;5.60;;;;;;;;;;4973858;28;20692;-72
2023/06/28 07:13:55;;;;;;;10.50;5.80;;;;;;;;;;4973663;28;20179;-73
2023/06/28 07:16:20;;;;;;;8.73;6.63;;;;;;;;;;4971221;28;20184;-73
2023/06/28 07:18:46;;;;;;;9.23;5.45;;;;;;;;;;4973041;28;20204;-73
2023/06/28 07:21:14;;;;;;;12.02;6.15;;;;;;;;;;4969167;28;20271;-72
2023/06/28 07:23:40;;;;;;;15.65;6.65;;;;;;;;;;4973864;28;20175;-73
2023/06/28 07:26:05;;;;;;;15.57;6.75;;;;;;;;;;4972075;28;20180;-73
2023/06/28 07:28:30;;;;;;;11.07;6.07;;;;;;;;;;4965460;28;20646;-73
2023/06/28 07:30:57;;;;;;;8.90;5.35;;;;;;;;;;4970953;28;20180;-73
2023/06/28 07:33:22;;;;;;;11.93;6.15;;;;;;;;;;4968012;28;20267;-73
2023/06/28 07:35:48;;;;;;;7.07;4.82;;;;;;;;;;4961255;28;20278;-73
2023/06/28 07:38:13;;;;;;;11.85;6.07;;;;;;;;;;4968414;28;20597;-73
2023/06/28 07:40:39;;;;;;;9.40;5.65;;;;;;;;;;4968483;28;20283;-73
2023/06/28 07:43:04;;;;;;;10.77;5.93;;;;;;;;;;4968994;28;20193;-72
2023/06/28 07:45:29;;;;;;;8.55;5.15;;;;;;;;;;4968282;28;20173;-73
2023/06/28 07:47:54;;;;;;;9.65;4.90;;;;;;;;;;4969363;28;20290;-71
2023/06/28 07:50:20;;;;;;;11.48;5.35;;;;;;;;;;4973322;28;20270;-71
2023/06/28 07:52:46;;;;;;;10.73;5.50;;;;;;;;;;4969976;28;20790;-72
2023/06/28 07:55:11;;;;;;;6.90;4.68;;;;;;;;;;4964412;28;20293;-71
2023/06/28 07:57:36;;;;;;;7.72;4.72;;;;;;;;;;4971909;28;20662;-71
2023/06/28 08:00:03;;;;;;;10.25;4.80;;;;;;;;;;4964793;28;20529;-71
2023/06/28 08:02:28;;;;;;;10.60;4.82;;;;;;;;;;4965720;28;20239;-72
2023/06/28 08:04:53;;;;;;;10.60;5.00;;;;;;;;;;4979532;28;20177;-72
2023/06/28 08:07:19;;;;;;;11.82;5.30;;;;;;;;;;4964175;28;20187;-72
2023/06/28 08:09:44;;;;;;;11.40;4.20;;;;;;;;;;4983475;28;20180;-72
2023/06/28 08:12:09;;;;;;;8.15;5.20;;;;;;;;;;4964948;28;20285;-72
2023/06/28 08:14:36;;;;;;;12.45;5.82;;;;;;;;;;4980790;28;20184;-72
2023/06/28 08:17:01;;;;;;;9.88;4.60;;;;;;;;;;4966554;28;20188;-73
2023/06/28 08:19:27;;;;;;;7.32;4.68;;;;;;;;;;4969437;28;20219;-72
2023/06/28 08:21:52;;;;;;;10.13;4.90;;;;;;;;;;4970894;28;20203;-71
2023/06/28 08:24:17;;;;;;;10.48;5.93;;;;;;;;;;4970317;28;20650;-72
2023/06/28 08:26:43;;;;;;;9.40;4.95;;;;;;;;;;4970179;28;20267;-72
2023/06/28 08:29:08;;;;;;;9.50;4.35;;;;;;;;;;4963549;28;20204;-72
2023/06/28 08:31:34;;;;;;;9.55;5.10;;;;;;;;;;4971817;28;20208;-71
2023/06/28 08:34:00;;;;;;;9.93;4.85;;;;;;;;;;4964019;28;20184;-71
2023/06/28 08:36:25;;;;;;;8.30;4.78;;;;;;;;;;4969568;28;20572;-70
2023/06/28 08:38:50;;;;;;;11.80;4.75;;;;;;;;;;4967053;28;20665;-70
2023/06/28 08:41:17;;;;;;;10.27;5.78;;;;;;;;;;4969589;28;20610;-71
2023/06/28 08:43:43;;;;;;;8.55;5.00;;;;;;;;;;4969312;28;20212;-71
2023/06/28 08:46:08;;;;;;;7.20;4.85;;;;;;;;;;4968629;28;20208;-72
2023/06/28 08:48:34;;;;;;;9.82;4.65;;;;;;;;;;4977958;28;20630;-71
2023/06/28 08:51:00;;;;;;;10.02;5.30;;;;;;;;;;4970354;28;20211;-71
2023/06/28 08:53:28;;;;;;;11.35;5.28;;;;;;;;;;4971722;28;20255;-71
2023/06/28 08:55:54;;;;;;;9.85;5.00;;;;;;;;;;4969415;28;20294;-71
2023/06/28 08:58:20;;;;;;;6.30;4.75;;;;;;;;;;4971062;28;20685;-71
2023/06/28 09:00:45;;;;;;;9.00;5.25;;;;;;;;;;4968801;28;20192;-71
2023/06/28 09:03:10;;;;;;;8.30;4.90;;;;;;;;;;4972251;28;20208;-71
2023/06/28 09:05:36;;;;;;;10.10;4.63;;;;;;;;;;4975795;28;20705;-71
2023/06/28 09:08:01;;;;;;;13.27;5.45;;;;;;;;;;4975683;28;20603;-71
2023/06/28 09:10:27;;;;;;;10.07;5.70;;;;;;;;;;4975641;28;20195;-71
2023/06/28 09:12:52;;;;;;;7.05;4.97;;;;;;;;;;4968585;28;20764;-71
2023/06/28 09:15:20;;;;;;;10.80;5.28;;;;;;;;;;4974859;28;20246;-71
2023/06/28 09:17:45;;;;;;;9.57;5.65;;;;;;;;;;4989008;28;20204;-71
2023/06/28 09:20:14;;;;;;;12.90;5.65;;;;;;;;;;4975552;28;20187;-71
2023/06/28 09:22:39;;;;;;;9.52;5.40;;;;;;;;;;4973205;28;20250;-71
2023/06/28 09:25:05;;;;;;;10.50;5.60;;;;;;;;;;4974275;28;20263;-71
2023/06/28 09:27:30;;;;;;;9.18;5.43;;;;;;;;;;4975892;28;20667;-71
2023/06/28 09:29:59;;;;;;;10.18;6.07;;;;;;;;;;4973089;28;20172;-71
2023/06/28 09:32:25;;;;;;;10.20;5.03;;;;;;;;;;4973367;28;20228;-72
2023/06/28 09:34:50;;;;;;;10.73;5.73;;;;;;;;;;4972684;28;20228;-71
2023/06/28 09:37:15;;;;;;;9.03;5.13;;;;;;;;;;4973334;28;20416;-72
2023/06/28 09:39:40;;;;;;;10.13;5.73;;;;;;;;;;4975090;28;20454;-71
2023/06/28 09:42:06;;;;;;;12.90;6.65;;;;;;;;;;4971990;28;20469;-71
2023/06/28 09:44:31;;;;;;;8.18;5.95;;;;;;;;;;4975409;28;20195;-71
2023/06/28 09:47:04;;;;;;;13.50;6.07;;;;;;;;;;4972381;28;20177;-72
2023/06/28 09:49:29;;;;;;;12.73;6.25;;;;;;;;;;4976040;28;20195;-71
2023/06/28 09:52:02;;;;;;;13.52;6.15;;;;;;;;;;4970513;28;20200;-72
2023/06/28 09:54:35;;;;;;;10.90;6.47;;;;;;;;;;4973082;28;20598;-71
2023/06/28 09:57:01;;;;;;;12.52;6.78;;;;;;;;;;4965690;28;20191;-71
2023/06/28 09:59:28;;;;;;;15.13;6.20;;;;;;;;;;4969747;28;20263;-72
2023/06/28 10:01:55;;;;;;;10.95;6.25;;;;;;;;;;4972289;28;20713;-72
2023/06/28 10:04:21;;;;;;;10.82;6.40;;;;;;;;;;4970671;28;20217;-72
2023/06/28 10:06:47;;;;;;;10.75;5.93;;;;;;;;;;4973795;28;20180;-72
2023/06/28 10:09:16;;;;;;;13.80;6.78;;;;;;;;;;4968168;28;20268;-71
2023/06/28 10:11:42;;;;;;;12.95;7.07;;;;;;;;;;4974008;28;20275;-72
2023/06/28 10:14:08;;;;;;;13.85;6.15;;;;;;;;;;4972647;28;20700;-72
2023/06/28 10:16:33;;;;;;;13.63;7.43;;;;;;;;;;4971652;28;20184;-72
2023/06/28 10:18:59;;;;;;;15.88;8.00;;;;;;;;;;4964293;28;20894;-71
2023/06/28 10:21:25;;;;;;;14.02;7.43;;;;;;;;;;4970374;28;20204;-72
2023/06/28 10:23:51;;;;;;;13.25;8.40;;;;;;;;;;4968587;28;20259;-71
2023/06/28 10:26:17;;;;;;;16.67;7.72;;;;;;;;;;4967332;28;20215;-72
2023/06/28 10:28:43;;;;;;;12.52;7.22;;;;;;;;;;4969015;28;20642;-72
2023/06/28 10:31:09;;;;;;;16.10;7.50;;;;;;;;;;4969483;28;20199;-72
2023/06/28 10:33:37;;;;;;;15.77;7.93;;;;;;;;;;4975075;28;20177;-72
2023/06/28 10:36:03;;;;;;;11.35;7.38;;;;;;;;;;4975091;28;20214;-72
2023/06/28 10:38:33;;;;;;;15.13;7.90;;;;;;;;;;4972791;28;20674;-72
2023/06/28 10:40:58;;;;;;;12.18;6.70;;;;;;;;;;4971366;28;20208;-72
2023/06/28 10:43:24;;;;;;;15.10;7.35;;;;;;;;;;4970898;28;20614;-72
2023/06/28 10:45:49;;;;;;;16.40;7.60;;;;;;;;;;4970616;28;20840;-72
2023/06/28 10:48:19;;;;;;;14.93;8.30;;;;;;;;;;4971089;28;20180;-72
2023/06/28 10:50:46;;;;;;;15.63;8.55;;;;;;;;;;4972254;28;20180;-72
2023/06/28 10:53:18;;;;;;;12.48;9.27;;;;;;;;;;4971835;28;20251;-72
2023/06/28 10:56:02;;;;;;;12.73;7.95;;;;;;;;;;4968791;28;20193;-72
2023/06/28 10:58:27;;;;;;;14.93;7.93;;;;;;;;;;4970957;28;20255;-72
2023/06/28 11:00:53;;;;;;;18.67;7.85;;;;;;;;;;4972485;28;20248;-72
2023/06/28 11:03:18;;;;;;;11.50;8.25;;;;;;;;;;4968194;28;20212;-72
2023/06/28 11:05:53;;;;;;;14.65;8.07;;;;;;;;;;4972525;28;20176;-72
2023/06/28 11:08:19;;;;;;;11.55;8.15;;;;;;;;;;4973573;28;20192;-72
2023/06/28 11:10:45;;;;;;;19.13;9.05;;;;;;;;;;4981818;28;20566;-72
2023/06/28 11:13:11;;;;;;;14.20;8.85;;;;;;;;;;4970732;28;20343;-72
2023/06/28 11:15:41;;;;;;;14.27;7.25;;;;;;;;;;4973360;28;20224;-72
2023/06/28 11:18:07;;;;;;;14.10;8.43;;;;;;;;;;4972847;28;20212;-71
2023/06/28 11:20:32;;;;;;;12.55;8.35;;;;;;;;;;4969395;28;20199;-72
2023/06/28 11:22:57;;;;;;;18.77;8.50;;;;;;;;;;4972720;28;20679;-72
2023/06/28 11:25:29;;;;;;;15.00;8.57;;;;;;;;;;4969363;28;20434;-72
2023/06/28 11:27:58;;;;;;;13.43;8.88;;;;;;;;;;4969476;28;20184;-72
2023/06/28 11:30:54;;;;;;;15.25;9.52;;;;;;;;;;4970274;28;20567;-72
2023/06/28 11:33:20;;;;;;;19.15;10.00;;;;;;;;;;4969974;28;20196;-72
2023/06/28 11:35:45;;;;;;;16.38;9.20;;;;;;;;;;4973221;28;20185;-72
2023/06/28 11:38:11;;;;;;;18.73;10.15;;;;;;;;;;4973511;28;20204;-72
2023/06/28 11:40:36;;;;;;;13.07;8.95;;;;;;;;;;4966137;28;20255;-73
2023/06/28 11:43:01;;;;;;;12.55;8.45;;;;;;;;;;4973167;28;20211;-72
2023/06/28 11:45:27;;;;;;;13.95;9.20;;;;;;;;;;4969989;28;20254;-72
2023/06/28 11:47:52;;;;;;;14.68;9.93;;;;;;;;;;4970774;28;20672;-72
2023/06/28 11:50:19;;;;;;;16.17;9.27;;;;;;;;;;4966941;28;20263;-72
2023/06/28 11:52:47;;;;;;;14.88;9.55;;;;;;;;;;4972338;28;20631;-72
2023/06/28 11:55:16;;;;;;;16.00;9.00;;;;;;;;;;4964974;28;20635;-72
2023/06/28 11:57:44;;;;;;;14.50;9.45;;;;;;;;;;4983787;28;20665;-72
2023/06/28 12:00:10;;;;;;;16.15;8.95;;;;;;;;;;4964684;28;20180;-72
2023/06/28 12:02:51;;;;;;;17.85;9.05;;;;;;;;;;4969868;23;20221;-65
2023/06/28 12:05:17;;;;;;;13.18;9.07;;;;;;;;;;4950817;28;20191;-66
2023/06/28 12:07:48;;;;;;;12.02;8.32;;;;;;;;;;4949825;28;20176;-66
2023/06/28 12:10:14;;;;;;;15.07;9.10;;;;;;;;;;4957578;28;20476;-66
2023/06/28 12:12:41;;;;;;;14.18;9.32;;;;;;;;;;4949728;28;20196;-67
2023/06/28 12:15:06;;;;;;;15.85;9.70;;;;;;;;;;4950300;28;20279;-68
2023/06/28 12:17:40;;;;;;;15.20;9.40;;;;;;;;;;4951001;28;20217;-68
2023/06/28 12:20:07;;;;;;;15.15;9.70;;;;;;;;;;4949803;28;20576;-67
2023/06/28 12:22:39;;;;;;;22.23;10.00;;;;;;;;;;4958233;28;20251;-67
2023/06/28 12:25:05;;;;;;;13.63;10.10;;;;;;;;;;4948611;28;20173;-67
2023/06/28 12:27:30;;;;;;;16.23;9.68;;;;;;;;;;4950144;28;20179;-67
2023/06/28 12:29:55;;;;;;;20.80;12.05;;;;;;;;;;4949146;28;20181;-66
2023/06/28 12:32:22;;;;;;;19.23;10.68;;;;;;;;;;4955320;28;20704;-67
2023/06/28 12:34:48;;;;;;;20.42;10.65;;;;;;;;;;4962335;28;20184;-67
2023/06/28 12:37:14;;;;;;;18.13;11.50;;;;;;;;;;4959643;28;20223;-67
2023/06/28 12:39:39;;;;;;;19.07;11.50;;;;;;;;;;4953022;28;20216;-67
2023/06/28 12:42:05;;;;;;;17.05;11.27;;;;;;;;;;4956506;28;20478;-66
2023/06/28 12:44:31;;;;;;;18.48;11.90;;;;;;;;;;4962618;28;20177;-66
2023/06/28 12:46:57;;;;;;;19.50;12.88;;;;;;;;;;4955627;28;20268;-66
2023/06/28 12:49:22;;;;;;;19.88;12.93;;;;;;;;;;4959489;28;20193;-66
2023/06/28 12:51:48;;;;;;;14.98;11.65;;;;;;;;;;4955589;28;20340;-66
2023/06/28 12:54:13;;;;;;;17.95;12.52;;;;;;;;;;4953173;28;20297;-67
2023/06/28 12:56:39;;;;;;;19.23;12.77;;;;;;;;;;4956090;28;20181;-67
2023/06/28 12:59:04;;;;;;;17.15;11.77;;;;;;;;;;4956443;28;20305;-67
2023/06/28 13:01:30;;;;;;;20.60;12.33;;;;;;;;;;4949893;28;20662;-66
2023/06/28 13:03:55;;;;;;;19.95;12.35;;;;;;;;;;4961002;28;20439;-66
2023/06/28 13:06:24;;;;;;;20.35;11.98;;;;;;;;;;4957019;28;20320;-67
2023/06/28 13:08:51;;;;;;;18.75;13.00;;;;;;;;;;4952030;28;20178;-66
2023/06/28 13:11:16;;;;;;;19.90;12.68;;;;;;;;;;4950801;28;20200;-67
2023/06/28 13:13:42;;;;;;;16.52;10.95;;;;;;;;;;4948845;28;20587;-67
2023/06/28 13:16:07;;;;;;;15.13;11.27;;;;;;;;;;4954434;28;20177;-66
2023/06/28 13:18:32;;;;;;;21.15;12.50;;;;;;;;;;4944991;28;20217;-67
2023/06/28 13:20:58;;;;;;;18.15;11.02;;;;;;;;;;4957273;28;20674;-68
2023/06/28 13:23:23;;;;;;;20.00;12.63;;;;;;;;;;4955354;28;20193;-67
2023/06/28 13:25:48;;;;;;;22.67;13.35;;;;;;;;;;4948844;28;20252;-66
2023/06/28 13:28:13;;;;;;;19.83;12.70;;;;;;;;;;4954357;28;20292;-67
2023/06/28 13:30:38;;;;;;;20.40;12.75;;;;;;;;;;4955527;28;20431;-66
2023/06/28 13:33:04;;;;;;;17.38;12.13;;;;;;;;;;4957511;28;20259;-68
2023/06/28 13:35:29;;;;;;;19.10;12.93;;;;;;;;;;4947612;28;20181;-67
2023/06/28 13:37:54;;;;;;;20.65;12.52;;;;;;;;;;4941680;28;20215;-67
2023/06/28 13:40:19;;;;;;;18.13;12.63;;;;;;;;;;4948567;28;20196;-67
2023/06/28 13:42:46;;;;;;;19.20;12.60;;;;;;;;;;4952886;28;20199;-66
2023/06/28 13:45:12;;;;;;;20.65;11.70;;;;;;;;;;4950239;28;20268;-67
2023/06/28 13:47:37;;;;;;;20.25;12.25;;;;;;;;;;4950101;28;20655;-67
2023/06/28 13:50:04;;;;;;;17.33;12.00;;;;;;;;;;4949766;28;20311;-68
2023/06/28 13:52:29;;;;;;;18.40;11.65;;;;;;;;;;4954445;28;20201;-67
2023/06/28 13:54:55;;;;;;;16.05;10.35;;;;;;;;;;4949947;28;20667;-66
2023/06/28 13:57:21;;;;;;;19.08;11.48;;;;;;;;;;4949467;28;20263;-67
2023/06/28 13:59:46;;;;;;;17.27;12.95;;;;;;;;;;4949276;28;20712;-66
2023/06/28 14:02:12;;;;;;;17.38;10.88;;;;;;;;;;4952035;28;20763;-67
2023/06/28 14:04:37;;;;;;;16.52;11.88;;;;;;;;;;4946178;28;20197;-66
2023/06/28 14:07:03;;;;;;;20.85;10.20;;;;;;;;;;4949773;28;20264;-67
2023/06/28 14:09:28;;;;;;;19.65;10.98;;;;;;;;;;4952957;28;20184;-67
2023/06/28 14:11:53;;;;;;;19.25;11.40;;;;;;;;;;4945094;28;20588;-66
2023/06/28 14:14:18;;;;;;;17.35;11.35;;;;;;;;;;4950123;28;20275;-67
2023/06/28 14:16:44;;;;;;;16.27;10.82;;;;;;;;;;4949602;28;20269;-67
2023/06/28 14:19:09;;;;;;;14.93;11.23;;;;;;;;;;4952311;28;20663;-66
2023/06/28 14:21:34;;;;;;;18.95;11.07;;;;;;;;;;4954134;28;20693;-67
2023/06/28 14:23:59;;;;;;;18.48;12.30;;;;;;;;;;4952969;28;20668;-67
2023/06/28 14:26:24;;;;;;;16.60;10.50;;;;;;;;;;4951918;28;20661;-67